createdAt,value
2018-06-21T00:00:04.804Z,32.07
2018-06-21T00:02:33.286Z,36.60
2018-06-21T00:05:01.765Z,28.97
2018-06-21T00:07:30.307Z,35.30
2018-06-21T00:09:58.766Z,35.20
2018-06-21T00:12:27.252Z,34.30
2018-06-21T00:14:55.389Z,37.30
2018-06-21T00:17:23.916Z,32.13
2018-06-21T00:19:52.359Z,36.63
2018-06-21T00:22:20.822Z,32.70
2018-06-21T00:24:49.299Z,33.77
2018-06-21T00:27:17.797Z,37.57
2018-06-21T00:29:46.307Z,34.83
2018-06-21T00:32:14.769Z,35.80
2018-06-21T00:34:43.384Z,30.70
2018-06-21T00:37:11.991Z,31.23
2018-06-21T00:39:40.533Z,31.73
2018-06-21T00:42:09.093Z,31.70
2018-06-21T00:44:37.252Z,29.80
2018-06-21T00:47:05.768Z,33.57
2018-06-21T00:49:34.258Z,29.43
2018-06-21T00:52:02.772Z,32.23
2018-06-21T00:54:31.249Z,31.97
2018-06-21T00:57:00.921Z,30.40
2018-06-21T00:59:29.208Z,31.87
2018-06-21T01:01:57.760Z,29.10
2018-06-21T01:04:26.284Z,30.87
2018-06-21T01:06:54.767Z,29.53
2018-06-21T01:09:23.365Z,29.17
2018-06-21T01:11:52.061Z,29.93
2018-06-21T01:14:21.321Z,30.03
2018-06-21T01:16:49.829Z,29.30
2018-06-21T01:19:18.559Z,29.73
2018-06-21T01:21:47.200Z,28.80
2018-06-21T01:24:16.347Z,30.27
2018-06-21T01:26:44.906Z,30.90
2018-06-21T01:29:14.296Z,26.00
2018-06-21T01:31:43.067Z,26.33
2018-06-21T01:34:13.046Z,26.33
2018-06-21T01:36:45.935Z,27.03
2018-06-21T01:39:15.261Z,29.83
2018-06-21T01:41:43.734Z,30.37
2018-06-21T01:44:16.348Z,27.27
2018-06-21T01:46:44.829Z,25.20
2018-06-21T01:49:13.299Z,26.63
2018-06-21T01:51:41.743Z,24.73
2018-06-21T01:54:10.214Z,31.50
2018-06-21T01:56:38.354Z,25.67
2018-06-21T01:59:06.860Z,29.60
2018-06-21T02:01:35.337Z,26.47
2018-06-21T02:04:03.782Z,27.80
2018-06-21T02:06:32.211Z,29.90
2018-06-21T02:09:00.766Z,28.63
2018-06-21T02:11:29.248Z,26.50
2018-06-21T02:13:57.753Z,25.17
2018-06-21T02:16:26.198Z,29.90
2018-06-21T02:18:54.888Z,31.20
2018-06-21T02:21:23.363Z,26.30
2018-06-21T02:23:51.803Z,32.03
2018-06-21T02:26:20.270Z,32.13
2018-06-21T02:28:48.736Z,23.27
2018-06-21T02:31:17.196Z,29.83
2018-06-21T02:33:45.347Z,26.63
2018-06-21T02:36:13.806Z,25.17
2018-06-21T02:38:42.233Z,22.47
2018-06-21T02:41:10.796Z,25.60
2018-06-21T02:43:39.303Z,27.30
2018-06-21T02:46:07.811Z,27.73
2018-06-21T02:48:36.260Z,23.97
2018-06-21T02:51:04.737Z,23.27
2018-06-21T02:53:33.158Z,23.90
2018-06-21T02:56:01.309Z,24.63
2018-06-21T02:58:29.757Z,27.83
2018-06-21T03:00:58.377Z,22.20
2018-06-21T03:03:26.824Z,20.43
2018-06-21T03:05:55.287Z,19.77
2018-06-21T03:08:23.754Z,22.20
2018-06-21T03:10:52.250Z,21.37
2018-06-21T03:13:20.671Z,22.90
2018-06-21T03:15:49.117Z,23.17
2018-06-21T03:18:17.320Z,19.90
2018-06-21T03:20:45.829Z,19.77
2018-06-21T03:23:14.320Z,19.63
2018-06-21T03:25:42.756Z,20.27
2018-06-21T03:28:10.996Z,19.27
2018-06-21T03:30:39.463Z,21.43
2018-06-21T03:33:08.055Z,18.47
2018-06-21T03:35:36.555Z,18.63
2018-06-21T03:38:05.042Z,20.13
2018-06-21T03:40:33.509Z,20.63
2018-06-21T03:43:02.123Z,17.87
2018-06-21T03:45:30.585Z,20.50
2018-06-21T03:47:59.119Z,16.67
2018-06-21T03:50:27.592Z,12.20
2018-06-21T03:52:56.100Z,8.20
2018-06-21T03:55:24.552Z,4.00
2018-06-21T03:57:53.052Z,4.17
2018-06-21T04:00:21.247Z,2.43
2018-06-21T04:02:49.760Z,2.43
2018-06-21T04:05:18.273Z,1.83
2018-06-21T04:07:46.764Z,1.83
2018-06-21T04:10:15.262Z,3.00
2018-06-21T04:12:43.738Z,1.90
2018-06-21T04:15:12.286Z,2.10
2018-06-21T04:17:40.749Z,1.87
2018-06-21T04:20:08.924Z,2.03
2018-06-21T04:22:37.086Z,1.90
2018-06-21T04:25:05.587Z,2.50
2018-06-21T04:27:33.726Z,2.40
2018-06-21T04:30:02.208Z,3.23
2018-06-21T04:32:30.653Z,3.23
2018-06-21T04:34:59.360Z,2.87
2018-06-21T04:37:27.878Z,3.10
2018-06-21T04:39:56.415Z,3.37
2018-06-21T04:42:24.912Z,3.40
2018-06-21T04:44:53.430Z,4.13
2018-06-21T04:47:21.870Z,3.77
2018-06-21T04:49:50.367Z,4.40
2018-06-21T04:52:19.250Z,3.67
2018-06-21T04:54:47.419Z,6.07
2018-06-21T04:57:16.299Z,6.10
2018-06-21T04:59:44.799Z,5.63
2018-06-21T05:02:13.240Z,4.27
2018-06-21T05:04:42.073Z,6.97
2018-06-21T05:07:10.569Z,6.67
2018-06-21T05:09:39.497Z,7.60
2018-06-21T05:12:08.072Z,4.07
2018-06-21T05:14:36.558Z,5.60
2018-06-21T05:17:05.317Z,2.90
2018-06-21T05:19:34.103Z,3.77
2018-06-21T05:22:03.154Z,7.40
2018-06-21T05:24:31.602Z,3.37
2018-06-21T05:27:00.082Z,7.67
2018-06-21T05:29:28.253Z,2.67
2018-06-21T05:31:56.721Z,6.10
2018-06-21T05:34:25.157Z,3.03
2018-06-21T05:36:53.623Z,8.27
2018-06-21T05:39:21.766Z,5.03
2018-06-21T05:41:50.243Z,4.00
2018-06-21T05:44:18.788Z,6.77
2018-06-21T05:46:46.920Z,7.10
2018-06-21T05:49:15.354Z,3.83
2018-06-21T05:51:43.843Z,4.17
2018-06-21T05:54:12.282Z,3.27
2018-06-21T05:56:40.786Z,5.83
2018-06-21T05:59:09.266Z,3.20
2018-06-21T06:01:37.716Z,4.23
2018-06-21T06:04:06.199Z,4.87
2018-06-21T06:06:34.684Z,5.60
2018-06-21T06:09:03.237Z,2.17
2018-06-21T06:11:31.697Z,4.27
2018-06-21T06:14:00.214Z,6.00
2018-06-21T06:16:28.774Z,5.20
2018-06-21T06:18:57.217Z,5.27
2018-06-21T06:21:25.676Z,8.03
2018-06-21T06:23:54.144Z,2.57
2018-06-21T06:26:22.585Z,4.77
2018-06-21T06:28:51.051Z,4.97
2018-06-21T06:31:19.501Z,5.17
2018-06-21T06:33:47.982Z,5.10
2018-06-21T06:36:16.414Z,5.03
2018-06-21T06:38:44.864Z,5.00
2018-06-21T06:41:13.339Z,4.67
2018-06-21T06:43:41.527Z,3.87
2018-06-21T06:46:10.072Z,3.80
2018-06-21T06:48:38.561Z,2.87
2018-06-21T06:51:07.014Z,3.80
2018-06-21T06:53:35.525Z,2.53
2018-06-21T06:56:03.992Z,6.33
2018-06-21T06:58:32.463Z,4.80
2018-06-21T07:01:00.892Z,3.67
2018-06-21T07:03:29.327Z,6.00
2018-06-21T07:05:57.802Z,5.53
2018-06-21T07:08:26.324Z,4.40
2018-06-21T07:10:54.452Z,6.30
2018-06-21T07:13:22.912Z,7.10
2018-06-21T07:15:51.365Z,5.27
2018-06-21T07:18:19.779Z,4.47
2018-06-21T07:20:48.240Z,3.07
2018-06-21T07:23:16.687Z,6.87
2018-06-21T07:25:45.172Z,7.10
2018-06-21T07:28:13.666Z,7.40
2018-06-21T07:30:42.139Z,2.80
2018-06-21T07:33:10.636Z,6.77
2018-06-21T07:35:39.103Z,4.07
2018-06-21T07:38:07.541Z,4.97
2018-06-21T07:40:36.069Z,9.90
2018-06-21T07:43:04.262Z,7.77
2018-06-21T07:45:32.762Z,10.80
2018-06-21T07:48:01.227Z,10.87
2018-06-21T07:50:29.749Z,6.33
2018-06-21T07:52:58.217Z,5.10
2018-06-21T07:55:26.747Z,3.93
2018-06-21T07:57:55.222Z,6.03
2018-06-21T08:00:23.690Z,3.23
2018-06-21T08:02:52.195Z,4.43
2018-06-21T08:05:20.631Z,4.47
2018-06-21T08:07:49.126Z,8.47
2018-06-21T08:10:17.634Z,5.37
2018-06-21T08:12:46.120Z,3.37
2018-06-21T08:15:14.581Z,8.83
2018-06-21T08:17:43.060Z,7.63
2018-06-21T08:20:11.527Z,4.57
2018-06-21T08:22:40.022Z,5.53
2018-06-21T08:25:08.505Z,3.00
2018-06-21T08:27:36.980Z,4.77
2018-06-21T08:30:05.535Z,5.60
2018-06-21T08:32:34.055Z,5.10
2018-06-21T08:35:02.184Z,6.63
2018-06-21T08:37:30.676Z,5.60
2018-06-21T08:39:59.171Z,7.93
2018-06-21T08:42:27.739Z,6.13
2018-06-21T08:44:56.225Z,5.53
2018-06-21T08:47:24.689Z,4.63
2018-06-21T08:49:53.123Z,6.70
2018-06-21T08:52:21.587Z,5.70
2018-06-21T08:54:50.060Z,4.57
2018-06-21T08:57:18.657Z,10.17
2018-06-21T08:59:47.149Z,2.97
2018-06-21T09:02:15.611Z,4.30
2018-06-21T09:04:44.082Z,6.40
2018-06-21T09:07:12.541Z,8.73
2018-06-21T09:09:41.186Z,5.27
2018-06-21T09:12:09.624Z,2.00
2018-06-21T09:14:38.103Z,5.13
2018-06-21T09:17:06.570Z,2.53
2018-06-21T09:19:35.044Z,5.73
2018-06-21T09:22:03.493Z,3.30
2018-06-21T09:24:32.041Z,2.13
2018-06-21T09:27:00.209Z,7.53
2018-06-21T09:29:28.760Z,3.63
2018-06-21T09:31:57.214Z,4.77
2018-06-21T09:34:25.731Z,3.97
2018-06-21T09:36:54.207Z,4.67
2018-06-21T09:39:28.028Z,1.90
2018-06-21T09:42:01.898Z,4.87
2018-06-21T09:44:32.096Z,8.70
2018-06-21T09:47:05.806Z,2.67
2018-06-21T09:49:34.821Z,5.30
2018-06-21T09:52:04.466Z,3.83
2018-06-21T09:54:33.315Z,2.37
2018-06-21T09:57:01.816Z,1.63
2018-06-21T09:59:31.055Z,6.20
2018-06-21T10:01:59.542Z,2.73
2018-06-21T10:04:28.035Z,3.60
2018-06-21T10:06:56.638Z,4.30
2018-06-21T10:09:25.504Z,6.37
2018-06-21T10:11:54.021Z,5.80
2018-06-21T10:14:22.604Z,5.83
2018-06-21T10:16:51.145Z,4.23
2018-06-21T10:19:19.619Z,2.60
2018-06-21T10:21:48.102Z,1.93
2018-06-21T10:24:16.594Z,9.17
2018-06-21T10:26:45.104Z,1.23
2018-06-21T10:29:13.516Z,3.30
2018-06-21T10:31:41.946Z,1.10
2018-06-21T10:34:10.352Z,1.47
2018-06-21T10:36:38.799Z,1.80
2018-06-21T10:39:09.329Z,1.47
2018-06-21T10:41:37.525Z,1.83
2018-06-21T10:44:06.022Z,1.53
2018-06-21T10:46:34.674Z,1.10
2018-06-21T10:49:03.133Z,2.07
2018-06-21T10:51:31.698Z,5.23
2018-06-21T10:54:00.124Z,1.40
2018-06-21T10:56:28.554Z,5.13
2018-06-21T10:58:57.009Z,1.50
2018-06-21T11:01:25.463Z,1.20
2018-06-21T11:03:53.959Z,1.20
2018-06-21T11:06:22.561Z,1.63
2018-06-21T11:08:51.101Z,1.43
2018-06-21T11:11:19.563Z,1.33
2018-06-21T11:13:48.049Z,1.23
2018-06-21T11:16:16.509Z,1.70
2018-06-21T11:18:45.032Z,1.40
2018-06-21T11:21:13.498Z,4.57
2018-06-21T11:23:41.657Z,1.53
2018-06-21T11:26:10.074Z,2.63
2018-06-21T11:28:38.598Z,1.40
2018-06-21T11:31:07.009Z,1.93
2018-06-21T11:33:35.500Z,2.30
2018-06-21T11:36:03.977Z,1.90
2018-06-21T11:38:32.410Z,1.97
2018-06-21T11:41:00.910Z,3.87
2018-06-21T11:43:29.372Z,1.27
2018-06-21T11:45:57.853Z,7.97
2018-06-21T11:48:26.310Z,2.90
2018-06-21T11:50:54.806Z,2.60
2018-06-21T11:53:22.953Z,4.37
2018-06-21T11:55:51.432Z,2.63
2018-06-21T11:58:19.923Z,6.47
2018-06-21T12:00:48.403Z,3.63
2018-06-21T12:03:16.962Z,6.87
2018-06-21T12:05:45.457Z,5.17
2018-06-21T12:08:13.933Z,2.77
2018-06-21T12:10:42.419Z,8.20
2018-06-21T12:13:10.873Z,4.17
2018-06-21T12:15:39.046Z,3.10
2018-06-21T12:18:07.537Z,1.87
2018-06-21T12:20:35.668Z,3.93
2018-06-21T12:23:04.145Z,1.53
2018-06-21T12:25:32.616Z,2.10
2018-06-21T12:28:01.135Z,1.33
2018-06-21T12:30:29.622Z,1.40
2018-06-21T12:32:58.132Z,3.95
2018-06-21T12:35:26.290Z,3.03
2018-06-21T12:37:54.768Z,2.40
2018-06-21T12:40:23.241Z,3.87
2018-06-21T12:42:51.771Z,0.77
2018-06-21T12:45:20.195Z,9.53
2018-06-21T12:47:48.697Z,5.77
2018-06-21T12:50:17.154Z,4.47
2018-06-21T12:52:45.616Z,5.20
2018-06-21T12:55:14.058Z,1.90
2018-06-21T12:57:42.494Z,1.87
2018-06-21T13:00:10.633Z,3.07
2018-06-21T13:02:39.793Z,4.43
2018-06-21T13:05:08.447Z,3.60
2018-06-21T13:07:37.401Z,7.73
2018-06-21T13:10:17.720Z,4.60
2018-06-21T13:13:02.938Z,3.63
2018-06-21T13:15:31.838Z,2.63
2018-06-21T13:18:00.278Z,4.27
2018-06-21T13:20:28.763Z,3.90
2018-06-21T13:22:57.508Z,1.57
2018-06-21T13:25:25.960Z,4.00
2018-06-21T13:27:54.390Z,2.87
2018-06-21T13:30:22.867Z,3.70
2018-06-21T13:32:51.465Z,1.73
2018-06-21T13:35:19.920Z,2.03
2018-06-21T13:37:48.371Z,1.07
2018-06-21T13:40:16.856Z,2.00
2018-06-21T13:42:45.455Z,5.23
2018-06-21T13:45:13.965Z,2.37
2018-06-21T13:47:42.583Z,2.10
2018-06-21T13:50:11.061Z,1.87
2018-06-21T13:52:39.571Z,1.13
2018-06-21T13:55:07.787Z,1.60
2018-06-21T13:57:36.268Z,0.73
2018-06-21T14:00:05.448Z,4.10
2018-06-21T14:02:33.617Z,2.00
2018-06-21T14:05:02.241Z,0.77
2018-06-21T14:07:30.743Z,2.67
2018-06-21T14:09:59.199Z,0.93
2018-06-21T14:12:27.707Z,0.70
2018-06-21T14:14:56.164Z,2.40
2018-06-21T14:17:24.626Z,1.43
2018-06-21T14:19:53.126Z,1.50
2018-06-21T14:22:21.608Z,2.27
2018-06-21T14:24:50.179Z,5.23
2018-06-21T14:27:18.676Z,1.60
2018-06-21T14:29:46.842Z,0.80
2018-06-21T14:32:15.358Z,1.80
2018-06-21T14:34:43.843Z,3.60
2018-06-21T14:37:12.376Z,2.90
2018-06-21T14:39:40.841Z,1.20
2018-06-21T14:42:09.277Z,0.50
2018-06-21T14:44:37.781Z,2.67
2018-06-21T14:47:06.241Z,2.00
2018-06-21T14:49:34.727Z,1.30
2018-06-21T14:52:03.226Z,1.23
2018-06-21T14:54:31.742Z,0.70
2018-06-21T14:57:00.254Z,0.60
2018-06-21T14:59:28.755Z,0.67
2018-06-21T15:01:58.011Z,1.43
2018-06-21T15:04:26.482Z,0.70
2018-06-21T15:06:54.958Z,2.20
2018-06-21T15:09:24.200Z,0.87
2018-06-21T15:11:53.203Z,0.87
2018-06-21T15:14:22.502Z,5.07
2018-06-21T15:16:51.712Z,3.43
2018-06-21T15:19:20.874Z,4.13
2018-06-21T15:21:50.221Z,4.17
2018-06-21T15:24:19.783Z,0.67
2018-06-21T15:26:49.124Z,2.20
2018-06-21T15:29:18.434Z,3.70
2018-06-21T15:31:47.755Z,2.60
2018-06-21T15:34:17.072Z,2.60
2018-06-21T15:36:46.402Z,3.10
2018-06-21T15:39:19.338Z,1.07
2018-06-21T15:41:47.846Z,0.67
2018-06-21T15:44:16.596Z,1.70
2018-06-21T15:46:45.216Z,6.33
2018-06-21T15:49:14.449Z,1.80
2018-06-21T15:51:43.117Z,1.90
2018-06-21T15:54:11.574Z,0.90
2018-06-21T15:56:40.024Z,2.10
2018-06-21T15:59:08.389Z,2.93
2018-06-21T16:01:36.990Z,0.90
2018-06-21T16:04:05.138Z,2.30
2018-06-21T16:06:33.644Z,2.90
2018-06-21T16:09:02.132Z,3.13
2018-06-21T16:11:30.297Z,2.67
2018-06-21T16:13:58.917Z,3.43
2018-06-21T16:16:27.352Z,1.50
2018-06-21T16:18:55.794Z,5.97
2018-06-21T16:21:24.594Z,4.47
2018-06-21T16:23:53.047Z,1.57
2018-06-21T16:26:21.515Z,2.70
2018-06-21T16:28:49.975Z,1.50
2018-06-21T16:31:18.502Z,1.53
2018-06-21T16:33:47.196Z,4.77
2018-06-21T16:36:15.825Z,1.90
2018-06-21T16:38:44.315Z,2.00
2018-06-21T16:41:12.912Z,5.07
2018-06-21T16:43:41.473Z,2.30
2018-06-21T16:46:09.990Z,3.23
2018-06-21T16:48:38.434Z,2.90
2018-06-21T16:51:06.644Z,1.47
2018-06-21T16:53:35.117Z,1.37
2018-06-21T16:56:03.668Z,3.97
2018-06-21T16:58:32.128Z,1.27
2018-06-21T17:01:00.613Z,2.87
2018-06-21T17:03:29.078Z,4.90
2018-06-21T17:05:57.736Z,2.90
2018-06-21T17:08:26.369Z,2.47
2018-06-21T17:10:54.874Z,1.50
2018-06-21T17:13:23.323Z,2.77
2018-06-21T17:15:51.844Z,3.83
2018-06-21T17:18:20.334Z,2.07
2018-06-21T17:20:48.845Z,7.00
2018-06-21T17:23:17.452Z,6.63
2018-06-21T17:25:45.922Z,5.30
2018-06-21T17:28:14.076Z,3.70
2018-06-21T17:30:42.524Z,5.97
2018-06-21T17:33:11.170Z,5.03
2018-06-21T17:35:39.800Z,4.00
2018-06-21T17:38:08.667Z,2.60
2018-06-21T17:40:37.167Z,9.50
2018-06-21T17:43:05.857Z,3.77
2018-06-21T17:45:34.343Z,2.73
2018-06-21T17:48:02.845Z,3.37
2018-06-21T17:50:31.319Z,5.63
2018-06-21T17:52:59.813Z,3.77
2018-06-21T17:55:28.325Z,3.57
2018-06-21T17:57:56.952Z,2.37
2018-06-21T18:00:25.419Z,5.70
2018-06-21T18:02:53.870Z,5.37
2018-06-21T18:05:22.414Z,7.07
2018-06-21T18:07:50.865Z,4.20
2018-06-21T18:10:19.334Z,3.50
2018-06-21T18:12:48.086Z,5.43
2018-06-21T18:15:16.550Z,3.10
2018-06-21T18:17:44.767Z,5.27
2018-06-21T18:20:13.211Z,5.90
2018-06-21T18:22:41.744Z,3.67
2018-06-21T18:25:10.207Z,5.83
2018-06-21T18:27:38.703Z,7.60
2018-06-21T18:30:07.235Z,7.23
2018-06-21T18:32:36.525Z,3.90
2018-06-21T18:35:05.326Z,3.17
2018-06-21T18:37:33.755Z,5.93
2018-06-21T18:40:02.251Z,7.47
2018-06-21T18:42:30.748Z,4.17
2018-06-21T18:44:59.254Z,8.57
2018-06-21T18:47:27.791Z,15.63
2018-06-21T18:49:56.269Z,4.30
2018-06-21T18:52:25.281Z,9.67
2018-06-21T18:54:53.817Z,2.40
2018-06-21T18:57:22.305Z,8.27
2018-06-21T18:59:50.761Z,6.63
2018-06-21T19:02:19.236Z,6.27
2018-06-21T19:04:47.750Z,6.10
2018-06-21T19:07:21.757Z,7.30
2018-06-21T19:09:55.463Z,7.33
2018-06-21T19:12:24.179Z,10.20
2018-06-21T19:14:52.764Z,6.73
2018-06-21T19:17:21.190Z,7.90
2018-06-21T19:19:49.695Z,4.60
2018-06-21T19:22:18.107Z,7.20
2018-06-21T19:24:46.588Z,14.27
2018-06-21T19:27:15.111Z,8.53
2018-06-21T19:29:43.642Z,10.73
2018-06-21T19:32:13.128Z,6.00
2018-06-21T19:34:41.562Z,9.07
2018-06-21T19:37:10.058Z,11.17
2018-06-21T19:39:38.525Z,10.43
2018-06-21T19:42:07.011Z,7.23
2018-06-21T19:44:35.480Z,8.40
2018-06-21T19:47:03.982Z,8.63
2018-06-21T19:49:32.860Z,4.90
2018-06-21T19:52:01.311Z,12.67
2018-06-21T19:54:29.803Z,10.00
2018-06-21T19:56:57.955Z,14.63
2018-06-21T19:59:26.404Z,4.13
2018-06-21T20:01:54.900Z,10.63
2018-06-21T20:04:23.436Z,7.13
2018-06-21T20:06:51.945Z,8.20
2018-06-21T20:09:20.432Z,3.73
2018-06-21T20:11:48.941Z,6.60
2018-06-21T20:14:17.482Z,6.80
2018-06-21T20:16:46.011Z,12.00
2018-06-21T20:19:16.843Z,6.43
2018-06-21T20:21:45.431Z,8.17
2018-06-21T20:24:14.024Z,6.53
2018-06-21T20:26:42.483Z,8.17
2018-06-21T20:29:21.145Z,5.47
2018-06-21T20:31:49.622Z,10.87
2018-06-21T20:34:18.055Z,10.53
2018-06-21T20:36:46.214Z,8.33
2018-06-21T20:39:14.680Z,10.30
2018-06-21T20:41:43.128Z,7.60
2018-06-21T20:44:11.734Z,6.07
2018-06-21T20:46:40.166Z,8.33
2018-06-21T20:49:08.311Z,9.83
2018-06-21T20:51:36.757Z,6.23
2018-06-21T20:54:05.228Z,7.70
2018-06-21T20:56:33.369Z,9.47
2018-06-21T20:59:02.652Z,11.30
2018-06-21T21:01:31.072Z,4.60
2018-06-21T21:03:59.524Z,5.63
2018-06-21T21:06:28.033Z,5.97
2018-06-21T21:08:56.488Z,10.00
2018-06-21T21:11:24.928Z,8.97
2018-06-21T21:13:53.140Z,10.77
2018-06-21T21:16:21.620Z,7.33
2018-06-21T21:18:50.079Z,6.73
2018-06-21T21:21:18.497Z,6.20
2018-06-21T21:23:46.956Z,3.33
2018-06-21T21:26:15.445Z,9.83
2018-06-21T21:28:43.933Z,7.10
2018-06-21T21:31:12.363Z,3.07
2018-06-21T21:33:40.890Z,3.43
2018-06-21T21:36:09.193Z,8.23
2018-06-21T21:38:37.631Z,3.43
2018-06-21T21:41:06.102Z,5.17
2018-06-21T21:43:34.540Z,6.53
2018-06-21T21:46:03.013Z,5.50
2018-06-21T21:48:31.447Z,5.23
2018-06-21T21:50:59.918Z,8.60
2018-06-21T21:53:28.367Z,6.93
2018-06-21T21:55:56.558Z,13.53
2018-06-21T21:58:25.072Z,11.27
2018-06-21T22:00:54.632Z,6.70
2018-06-21T22:03:23.122Z,5.80
2018-06-21T22:05:51.263Z,8.67
2018-06-21T22:08:19.731Z,6.57
2018-06-21T22:10:48.503Z,9.23
2018-06-21T22:13:17.393Z,9.03
2018-06-21T22:15:46.082Z,12.37
2018-06-21T22:18:14.556Z,8.63
2018-06-21T22:20:42.710Z,9.47
2018-06-21T22:23:11.218Z,8.33
2018-06-21T22:25:39.402Z,5.70
2018-06-21T22:28:07.864Z,7.63
2018-06-21T22:30:36.349Z,7.57
2018-06-21T22:33:04.817Z,8.17
2018-06-21T22:35:33.370Z,7.70
2018-06-21T22:38:01.835Z,13.57
2018-06-21T22:40:30.294Z,8.63
2018-06-21T22:42:58.807Z,9.13
2018-06-21T22:45:27.410Z,8.20
2018-06-21T22:47:56.008Z,4.30
2018-06-21T22:50:24.674Z,6.17
2018-06-21T22:52:53.214Z,6.80
2018-06-21T22:55:21.754Z,5.70
2018-06-21T22:57:50.351Z,4.83
2018-06-21T23:00:18.889Z,4.33
2018-06-21T23:02:47.382Z,4.23
2018-06-21T23:05:16.049Z,6.03
2018-06-21T23:07:44.555Z,3.50
2018-06-21T23:10:13.317Z,6.43
2018-06-21T23:12:41.845Z,4.20
2018-06-21T23:15:10.032Z,7.23
2018-06-21T23:17:38.599Z,2.47
2018-06-21T23:20:07.229Z,3.90
2018-06-21T23:22:35.758Z,5.70
2018-06-21T23:25:04.221Z,3.70
2018-06-21T23:27:32.669Z,3.90
2018-06-21T23:30:01.186Z,4.20
2018-06-21T23:32:29.696Z,5.90
2018-06-21T23:34:58.244Z,4.97
2018-06-21T23:37:26.809Z,4.07
2018-06-21T23:39:55.319Z,10.40
2018-06-21T23:42:23.884Z,4.03
2018-06-21T23:44:52.372Z,4.17
2018-06-21T23:47:20.834Z,9.03
2018-06-21T23:49:49.347Z,5.33
2018-06-21T23:52:17.522Z,4.07
2018-06-21T23:54:45.722Z,7.97
2018-06-21T23:57:14.281Z,2.83
2018-06-21T23:59:42.854Z,4.13
